Providence, Rhode Island
Traffic Map
Current Weather Conditions
Providence, Rhode Island
Scattered Clouds
Scattered Clouds
23°
Feels Like: 23°
Wind Chill: 23° Ceiling: Unl
Heat Index: 23° Visibility: 10mi
Dew Point: 13° Wind: 6mph
Humidity: 52% Direction: 300° (WNW)
Pressure: 29.83in Gusts: 0mph
Raw Report DataKPVD 232351Z 30005KT 10SM FEW160 SCT300 23/13 A2983 RMK AO2 SLP099 T02330128 10300 20233 53014
Traffic Incident Summary
Active as of:
Severity:
Category:
InformationThere was an issue retrieving the traffic information for this location. Please try a different location or try again shortly.
Advertisements